PWSweather.com
Personal Weather Stations
Station Observations
UWIDEPER1
Brown County, Depere, WI 54115

Brown CountyDepere, WI 54115

Lat: 44.44, Lon: -88.05

Elevation: 610

Station Type: Acurite 5in1

www.depereweather.com

High Low Average
Temperature 12.6°F-10.8°C -1.1°F-18.4°C 5.7°F-14.6°C
Dew Point 2.3°F-16.5°C -5.5°F-20.8°C -1.7°F-18.7°C
Winds 10.4 mph 16.7 kmh Calm Calm 4.0 mph SW6.4 kmh SW
Wind Gusts 11.5 mph18.5 kmh -- 5.0 mph8.0 kmh
Humidity 86% 56% 72%
Pressure 30.57 in1035.2 mb 30.26 in1024.7 mb -
Precipitation 0.00 in0.0 mm - -
Hour Temp Dew Point Humidity Winds Wind Gusts Pressure Precip Precip Rate Daily Precip Total
12:00 AM 5.5°F-14.7°C 2.3°F-16.5°C 86% 3.5 mph NNW5.6 kmh NNW 3.5 mph5.6 kmh 30.26 in1024.7 mb - 0.00 in0.0 mm 0.00 in0.0 mm
12:10 AM 5.5°F-14.7°C 2.3°F-16.5°C 86% 2.3 mph NW3.7 kmh NW 2.3 mph3.7 kmh 30.26 in1024.7 mb - 0.00 in0.0 mm 0.00 in0.0 mm
12:15 AM 5.5°F-14.7°C 2.0°F-16.7°C 85% 2.3 mph N3.7 kmh N 2.3 mph3.7 kmh 30.26 in1024.7 mb - 0.00 in0.0 mm 0.00 in0.0 mm
12:20 AM 5.4°F-14.8°C 1.8°F-16.8°C 85% 2.3 mph NW3.7 kmh NW 2.3 mph3.7 kmh 30.26 in1024.7 mb - 0.00 in0.0 mm 0.00 in0.0 mm
12:25 AM 5.4°F-14.8°C 1.8°F-16.8°C 85% 2.3 mph N3.7 kmh N 4.6 mph7.4 kmh 30.26 in1024.7 mb - 0.00 in0.0 mm 0.00 in0.0 mm
12:30 AM 5.5°F-14.7°C 1.5°F-16.9°C 83% 3.5 mph N5.6 kmh N 3.5 mph5.6 kmh 30.26 in1024.7 mb - 0.00 in0.0 mm 0.00 in0.0 mm
12:35 AM 5.5°F-14.7°C 1.5°F-16.9°C 83% 2.3 mph NNW3.7 kmh NNW 3.5 mph5.6 kmh 30.26 in1024.7 mb - 0.00 in0.0 mm 0.00 in0.0 mm
12:40 AM 5.5°F-14.7°C 1.5°F-16.9°C 83% 2.3 mph NW3.7 kmh NW 5.8 mph9.3 kmh 30.27 in1025.1 mb - 0.00 in0.0 mm 0.00 in0.0 mm
12:45 AM 5.7°F-14.6°C 1.1°F-17.2°C 81% 3.5 mph NW5.6 kmh NW 6.9 mph11.1 kmh 30.27 in1025.1 mb - 0.00 in0.0 mm 0.00 in0.0 mm
12:50 AM 6.2°F-14.3°C 1.3°F-17.1°C 80% 4.6 mph NW7.4 kmh NW 5.8 mph9.3 kmh 30.27 in1025.1 mb - 0.00 in0.0 mm 0.00 in0.0 mm
12:55 AM 6.1°F-14.4°C 1.0°F-17.2°C 79% 3.5 mph NNW5.6 kmh NNW 5.8 mph9.3 kmh 30.29 in1025.7 mb - 0.00 in0.0 mm 0.00 in0.0 mm
01:00 AM 6.1°F-14.4°C 1.0°F-17.2°C 79% 3.5 mph NNW5.6 kmh NNW 3.5 mph5.6 kmh 30.29 in1025.7 mb - 0.00 in0.0 mm 0.00 in0.0 mm
01:10 AM 6.1°F-14.4°C 1.0°F-17.2°C 79% 3.5 mph NW5.6 kmh NW 3.5 mph5.6 kmh 30.29 in1025.7 mb - 0.00 in0.0 mm 0.00 in0.0 mm
01:15 AM 6.1°F-14.4°C 1.0°F-17.2°C 79% 3.5 mph WNW5.6 kmh WNW 6.9 mph11.1 kmh 30.30 in1026.1 mb - 0.00 in0.0 mm 0.00 in0.0 mm
01:20 AM 6.1°F-14.4°C 1.0°F-17.2°C 79% 3.5 mph N5.6 kmh N 3.5 mph5.6 kmh 30.30 in1026.1 mb - 0.00 in0.0 mm 0.00 in0.0 mm
01:25 AM 6.1°F-14.4°C 1.0°F-17.2°C 79% 2.3 mph NE3.7 kmh NE 3.5 mph5.6 kmh 30.30 in1026.1 mb - 0.00 in0.0 mm 0.00 in0.0 mm
01:30 AM 6.1°F-14.4°C 1.0°F-17.2°C 79% 3.5 mph N5.6 kmh N 2.3 mph3.7 kmh 30.30 in1026.1 mb - 0.00 in0.0 mm 0.00 in0.0 mm
01:35 AM 5.9°F-14.5°C 0.8°F-17.3°C 79% 2.3 mph N3.7 kmh N 3.5 mph5.6 kmh 30.30 in1026.1 mb - 0.00 in0.0 mm 0.00 in0.0 mm
01:40 AM 5.9°F-14.5°C 0.8°F-17.3°C 79% 3.5 mph W5.6 kmh W 3.5 mph5.6 kmh 30.30 in1026.1 mb - 0.00 in0.0 mm 0.00 in0.0 mm
01:45 AM 5.9°F-14.5°C 0.8°F-17.3°C 79% 2.3 mph NW3.7 kmh NW 3.5 mph5.6 kmh 30.30 in1026.1 mb - 0.00 in0.0 mm 0.00 in0.0 mm
01:50 AM 5.9°F-14.5°C 0.8°F-17.3°C 79% 2.3 mph N3.7 kmh N 3.5 mph5.6 kmh 30.31 in1026.4 mb - 0.00 in0.0 mm 0.00 in0.0 mm
01:55 AM 5.9°F-14.5°C 0.8°F-17.3°C 79% 2.3 mph NW3.7 kmh NW 3.5 mph5.6 kmh 30.31 in1026.4 mb - 0.00 in0.0 mm 0.00 in0.0 mm
02:00 AM 5.8°F-14.6°C 0.7°F-17.4°C 79% 3.5 mph NE5.6 kmh NE 5.8 mph9.3 kmh 30.31 in1026.4 mb - 0.00 in0.0 mm 0.00 in0.0 mm
02:10 AM 5.5°F-14.7°C 0.4°F-17.6°C 79% 2.3 mph N3.7 kmh N 3.5 mph5.6 kmh 30.31 in1026.4 mb - 0.00 in0.0 mm 0.00 in0.0 mm
02:15 AM 5.2°F-14.9°C 0.4°F-17.6°C 80% 2.3 mph W3.7 kmh W 3.5 mph5.6 kmh 30.32 in1026.8 mb - 0.00 in0.0 mm 0.00 in0.0 mm
02:20 AM 5.0°F-15.0°C 0.4°F-17.6°C 81% 2.3 mph N3.7 kmh N 3.5 mph5.6 kmh 30.31 in1026.4 mb - 0.00 in0.0 mm 0.00 in0.0 mm
02:25 AM 4.8°F-15.1°C 0.3°F-17.6°C 81% 2.3 mph NNW3.7 kmh NNW 4.6 mph7.4 kmh 30.32 in1026.8 mb - 0.00 in0.0 mm 0.00 in0.0 mm
02:30 AM 4.8°F-15.1°C 0.3°F-17.6°C 81% 3.5 mph NNW5.6 kmh NNW 4.6 mph7.4 kmh 30.32 in1026.8 mb - 0.00 in0.0 mm 0.00 in0.0 mm
02:35 AM 4.8°F-15.1°C 0.3°F-17.6°C 81% 2.3 mph NNE3.7 kmh NNE 3.5 mph5.6 kmh 30.32 in1026.8 mb - 0.00 in0.0 mm 0.00 in0.0 mm
02:40 AM 4.8°F-15.1°C 0.3°F-17.6°C 81% 3.5 mph NNW5.6 kmh NNW 3.5 mph5.6 kmh 30.33 in1027.1 mb - 0.00 in0.0 mm 0.00 in0.0 mm
02:45 AM 4.7°F-15.2°C 0.1°F-17.7°C 81% 2.3 mph NW3.7 kmh NW 3.5 mph5.6 kmh 30.33 in1027.1 mb - 0.00 in0.0 mm 0.00 in0.0 mm
02:50 AM 4.5°F-15.3°C -0.1°F-17.8°C 81% 3.5 mph NW5.6 kmh NW 4.6 mph7.4 kmh 30.33 in1027.1 mb - 0.00 in0.0 mm 0.00 in0.0 mm
02:55 AM 4.5°F-15.3°C -0.1°F-17.8°C 81% 3.5 mph N5.6 kmh N 3.5 mph5.6 kmh 30.33 in1027.1 mb - 0.00 in0.0 mm 0.00 in0.0 mm
03:00 AM 4.5°F-15.3°C -0.1°F-17.8°C 81% 2.3 mph N3.7 kmh N 4.6 mph7.4 kmh 30.33 in1027.1 mb - 0.00 in0.0 mm 0.00 in0.0 mm
03:10 AM 4.3°F-15.4°C -0.3°F-17.9°C 81% 3.5 mph ENE5.6 kmh ENE 4.6 mph7.4 kmh 30.33 in1027.1 mb - 0.00 in0.0 mm 0.00 in0.0 mm
03:15 AM 4.3°F-15.4°C -0.3°F-17.9°C 81% 4.6 mph N7.4 kmh N 6.9 mph11.1 kmh 30.33 in1027.1 mb - 0.00 in0.0 mm 0.00 in0.0 mm
03:20 AM 4.3°F-15.4°C -0.3°F-17.9°C 81% 4.6 mph NW7.4 kmh NW 5.8 mph9.3 kmh 30.33 in1027.1 mb - 0.00 in0.0 mm 0.00 in0.0 mm
03:25 AM 4.3°F-15.4°C -0.3°F-17.9°C 81% 4.6 mph N7.4 kmh N 5.8 mph9.3 kmh 30.33 in1027.1 mb - 0.00 in0.0 mm 0.00 in0.0 mm
03:30 AM 4.3°F-15.4°C -0.3°F-17.9°C 81% 3.5 mph NNW5.6 kmh NNW 4.6 mph7.4 kmh 30.33 in1027.1 mb - 0.00 in0.0 mm 0.00 in0.0 mm
03:35 AM 4.3°F-15.4°C -0.3°F-17.9°C 81% 4.6 mph NNE7.4 kmh NNE 6.9 mph11.1 kmh 30.32 in1026.8 mb - 0.00 in0.0 mm 0.00 in0.0 mm
03:40 AM 4.3°F-15.4°C -0.3°F-17.9°C 81% 5.8 mph NW9.3 kmh NW 4.6 mph7.4 kmh 30.33 in1027.1 mb - 0.00 in0.0 mm 0.00 in0.0 mm
03:45 AM 4.2°F-15.4°C -0.3°F-17.9°C 81% 3.5 mph N5.6 kmh N 5.8 mph9.3 kmh 30.33 in1027.1 mb - 0.00 in0.0 mm 0.00 in0.0 mm
03:50 AM 3.9°F-15.6°C -0.6°F-18.1°C 81% 3.5 mph N5.6 kmh N 6.9 mph11.1 kmh 30.33 in1027.1 mb - 0.00 in0.0 mm 0.00 in0.0 mm
03:55 AM 3.7°F-15.7°C -0.3°F-17.9°C 83% 3.5 mph NW5.6 kmh NW 4.6 mph7.4 kmh 30.33 in1027.1 mb - 0.00 in0.0 mm 0.00 in0.0 mm
04:00 AM 3.7°F-15.7°C -0.3°F-17.9°C 83% 4.6 mph NW7.4 kmh NW 5.8 mph9.3 kmh 30.33 in1027.1 mb - 0.00 in0.0 mm 0.00 in0.0 mm
04:10 AM 3.6°F-15.8°C -1.0°F-18.3°C 81% 4.6 mph NW7.4 kmh NW 5.8 mph9.3 kmh 30.33 in1027.1 mb - 0.00 in0.0 mm 0.00 in0.0 mm
04:15 AM 3.4°F-15.9°C -1.1°F-18.4°C 81% 3.5 mph NW5.6 kmh NW 5.8 mph9.3 kmh 30.33 in1027.1 mb - 0.00 in0.0 mm 0.00 in0.0 mm
04:20 AM 3.4°F-15.9°C -1.4°F-18.6°C 80% 5.8 mph NW9.3 kmh NW 5.8 mph9.3 kmh 30.34 in1027.4 mb - 0.00 in0.0 mm 0.00 in0.0 mm
04:25 AM 3.0°F-16.1°C -1.8°F-18.8°C 80% 3.5 mph NW5.6 kmh NW 6.9 mph11.1 kmh 30.34 in1027.4 mb - 0.00 in0.0 mm 0.00 in0.0 mm
04:30 AM 3.0°F-16.1°C -1.8°F-18.8°C 80% 3.5 mph NNE5.6 kmh NNE 4.6 mph7.4 kmh 30.33 in1027.1 mb - 0.00 in0.0 mm 0.00 in0.0 mm
04:35 AM 2.7°F-16.3°C -2.1°F-18.9°C 80% 3.5 mph NW5.6 kmh NW 6.9 mph11.1 kmh 30.34 in1027.4 mb - 0.00 in0.0 mm 0.00 in0.0 mm
04:40 AM 2.7°F-16.3°C -2.1°F-18.9°C 80% 3.5 mph WNW5.6 kmh WNW 4.6 mph7.4 kmh 30.33 in1027.1 mb - 0.00 in0.0 mm 0.00 in0.0 mm
04:45 AM 2.6°F-16.3°C -1.9°F-18.8°C 81% 3.5 mph WNW5.6 kmh WNW 3.5 mph5.6 kmh 30.34 in1027.4 mb - 0.00 in0.0 mm 0.00 in0.0 mm
04:50 AM 2.5°F-16.4°C -2.0°F-18.9°C 81% 3.5 mph WNW5.6 kmh WNW 4.6 mph7.4 kmh 30.34 in1027.4 mb - 0.00 in0.0 mm 0.00 in0.0 mm
04:55 AM 2.1°F-16.6°C -2.4°F-19.1°C 81% 3.5 mph NNW5.6 kmh NNW 3.5 mph5.6 kmh 30.33 in1027.1 mb - 0.00 in0.0 mm 0.00 in0.0 mm
05:00 AM 2.1°F-16.6°C -2.4°F-19.1°C 81% 3.5 mph NW5.6 kmh NW 3.5 mph5.6 kmh 30.33 in1027.1 mb - 0.00 in0.0 mm 0.00 in0.0 mm
05:10 AM 1.9°F-16.7°C -2.5°F-19.2°C 81% 2.3 mph NW3.7 kmh NW 5.8 mph9.3 kmh 30.34 in1027.4 mb - 0.00 in0.0 mm 0.00 in0.0 mm
05:15 AM 1.9°F-16.7°C -2.5°F-19.2°C 81% 3.5 mph NNW5.6 kmh NNW 3.5 mph5.6 kmh 30.34 in1027.4 mb - 0.00 in0.0 mm 0.00 in0.0 mm
05:20 AM 1.9°F-16.7°C -2.5°F-19.2°C 81% 3.5 mph N5.6 kmh N 2.3 mph3.7 kmh 30.35 in1027.8 mb - 0.00 in0.0 mm 0.00 in0.0 mm
05:25 AM 1.8°F-16.8°C -2.7°F-19.3°C 81% 3.5 mph N5.6 kmh N 5.8 mph9.3 kmh 30.35 in1027.8 mb - 0.00 in0.0 mm 0.00 in0.0 mm
05:30 AM 1.8°F-16.8°C -2.7°F-19.3°C 81% 3.5 mph NW5.6 kmh NW 3.5 mph5.6 kmh 30.35 in1027.8 mb - 0.00 in0.0 mm 0.00 in0.0 mm
05:35 AM 1.6°F-16.9°C -2.9°F-19.4°C 81% 2.3 mph N3.7 kmh N 2.3 mph3.7 kmh 30.35 in1027.8 mb - 0.00 in0.0 mm 0.00 in0.0 mm
05:40 AM 1.2°F-17.1°C -3.3°F-19.6°C 81% 2.3 mph N3.7 kmh N 3.5 mph5.6 kmh 30.35 in1027.8 mb - 0.00 in0.0 mm 0.00 in0.0 mm
05:45 AM 1.2°F-17.1°C -2.7°F-19.3°C 83% 2.3 mph WNW3.7 kmh WNW 2.3 mph3.7 kmh 30.35 in1027.8 mb - 0.00 in0.0 mm 0.00 in0.0 mm
05:50 AM 1.2°F-17.1°C -2.7°F-19.3°C 83% 3.5 mph N5.6 kmh N 3.5 mph5.6 kmh 30.36 in1028.1 mb - 0.00 in0.0 mm 0.00 in0.0 mm
05:55 AM 1.2°F-17.1°C -2.7°F-19.3°C 83% 3.5 mph NNW5.6 kmh NNW 3.5 mph5.6 kmh 30.35 in1027.8 mb - 0.00 in0.0 mm 0.00 in0.0 mm
06:00 AM 1.0°F-17.2°C -2.9°F-19.4°C 83% 3.5 mph N5.6 kmh N 4.6 mph7.4 kmh 30.36 in1028.1 mb - 0.00 in0.0 mm 0.00 in0.0 mm
06:10 AM 1.2°F-17.1°C -3.3°F-19.6°C 81% 5.8 mph NW9.3 kmh NW 4.6 mph7.4 kmh 30.36 in1028.1 mb - 0.00 in0.0 mm 0.00 in0.0 mm
06:15 AM 1.2°F-17.1°C -3.3°F-19.6°C 81% 4.6 mph NW7.4 kmh NW 6.9 mph11.1 kmh 30.37 in1028.4 mb - 0.00 in0.0 mm 0.00 in0.0 mm
06:20 AM 1.2°F-17.1°C -3.3°F-19.6°C 81% 5.8 mph W9.3 kmh W 8.1 mph13.0 kmh 30.37 in1028.4 mb - 0.00 in0.0 mm 0.00 in0.0 mm
06:25 AM 1.2°F-17.1°C -3.3°F-19.6°C 81% 5.8 mph NW9.3 kmh NW 5.8 mph9.3 kmh 30.36 in1028.1 mb - 0.00 in0.0 mm 0.00 in0.0 mm
06:30 AM 1.0°F-17.2°C -3.4°F-19.7°C 81% 3.5 mph NNW5.6 kmh NNW 5.8 mph9.3 kmh 30.37 in1028.4 mb - 0.00 in0.0 mm 0.00 in0.0 mm
06:35 AM 0.9°F-17.3°C -3.6°F-19.8°C 81% 4.6 mph NNW7.4 kmh NNW 5.8 mph9.3 kmh 30.37 in1028.4 mb - 0.00 in0.0 mm 0.00 in0.0 mm
06:40 AM 0.7°F-17.4°C -3.8°F-19.9°C 81% 3.5 mph NW5.6 kmh NW 3.5 mph5.6 kmh 30.37 in1028.4 mb - 0.00 in0.0 mm 0.00 in0.0 mm
06:45 AM 0.5°F-17.5°C -4.0°F-20.0°C 81% 2.3 mph N3.7 kmh N 4.6 mph7.4 kmh 30.38 in1028.8 mb - 0.00 in0.0 mm 0.00 in0.0 mm
06:50 AM 0.3°F-17.6°C -4.1°F-20.1°C 81% 3.5 mph NW5.6 kmh NW 4.6 mph7.4 kmh 30.38 in1028.8 mb - 0.00 in0.0 mm 0.00 in0.0 mm
06:55 AM 0.3°F-17.6°C -4.1°F-20.1°C 81% 3.5 mph N5.6 kmh N 3.5 mph5.6 kmh 30.38 in1028.8 mb - 0.00 in0.0 mm 0.00 in0.0 mm
07:00 AM 0.3°F-17.6°C -4.1°F-20.1°C 81% 4.6 mph NW7.4 kmh NW 5.8 mph9.3 kmh 30.37 in1028.4 mb - 0.00 in0.0 mm 0.00 in0.0 mm
07:10 AM 0.3°F-17.6°C -4.1°F-20.1°C 81% 3.5 mph NNW5.6 kmh NNW 3.5 mph5.6 kmh 30.38 in1028.8 mb - 0.00 in0.0 mm 0.00 in0.0 mm
07:15 AM 0.3°F-17.6°C -4.1°F-20.1°C 81% 3.5 mph NW5.6 kmh NW 4.6 mph7.4 kmh 30.39 in1029.1 mb - 0.00 in0.0 mm 0.00 in0.0 mm
07:20 AM 0.3°F-17.6°C -4.1°F-20.1°C 81% 4.6 mph WNW7.4 kmh WNW 3.5 mph5.6 kmh 30.39 in1029.1 mb - 0.00 in0.0 mm 0.00 in0.0 mm
07:25 AM 0.3°F-17.6°C -4.1°F-20.1°C 81% 3.5 mph NE5.6 kmh NE 3.5 mph5.6 kmh 30.39 in1029.1 mb - 0.00 in0.0 mm 0.00 in0.0 mm
07:30 AM 0.1°F-17.7°C -4.3°F-20.2°C 81% 3.5 mph NW5.6 kmh NW 4.6 mph7.4 kmh 30.39 in1029.1 mb - 0.00 in0.0 mm 0.00 in0.0 mm
07:35 AM 0.1°F-17.7°C -4.6°F-20.3°C 80% 4.6 mph NW7.4 kmh NW 5.8 mph9.3 kmh 30.39 in1029.1 mb - 0.00 in0.0 mm 0.00 in0.0 mm
07:40 AM 0.1°F-17.7°C -4.6°F-20.3°C 80% 3.5 mph N5.6 kmh N 6.9 mph11.1 kmh 30.39 in1029.1 mb - 0.00 in0.0 mm 0.00 in0.0 mm
07:45 AM 0.1°F-17.7°C -4.6°F-20.3°C 80% 3.5 mph WNW5.6 kmh WNW 3.5 mph5.6 kmh 30.39 in1029.1 mb - 0.00 in0.0 mm 0.00 in0.0 mm
07:50 AM 0.1°F-17.7°C -4.6°F-20.3°C 80% 3.5 mph NNW5.6 kmh NNW 3.5 mph5.6 kmh 30.40 in1029.5 mb - 0.00 in0.0 mm 0.00 in0.0 mm
07:55 AM 0.1°F-17.7°C -4.8°F-20.4°C 79% 4.6 mph NNW7.4 kmh NNW 5.8 mph9.3 kmh 30.39 in1029.1 mb - 0.00 in0.0 mm 0.00 in0.0 mm
08:00 AM 0.9°F-17.3°C -4.4°F-20.2°C 78% 4.6 mph WNW7.4 kmh WNW 5.8 mph9.3 kmh 30.40 in1029.5 mb - 0.00 in0.0 mm 0.00 in0.0 mm
08:10 AM 1.8°F-16.8°C -4.3°F-20.2°C 75% 4.6 mph NW7.4 kmh NW 8.1 mph13.0 kmh 30.40 in1029.5 mb - 0.00 in0.0 mm 0.00 in0.0 mm
08:15 AM 1.9°F-16.7°C -4.4°F-20.2°C 74% 4.6 mph NW7.4 kmh NW 6.9 mph11.1 kmh 30.40 in1029.5 mb - 0.00 in0.0 mm 0.00 in0.0 mm
08:20 AM 2.1°F-16.6°C -4.3°F-20.2°C 74% 3.5 mph NW5.6 kmh NW 3.5 mph5.6 kmh 30.40 in1029.5 mb - 0.00 in0.0 mm 0.00 in0.0 mm
08:25 AM 2.6°F-16.3°C -3.8°F-19.9°C 74% 4.6 mph NW7.4 kmh NW 5.8 mph9.3 kmh 30.41 in1029.8 mb - 0.00 in0.0 mm 0.00 in0.0 mm
08:30 AM 3.0°F-16.1°C -3.7°F-19.8°C 73% 3.5 mph NW5.6 kmh NW 5.8 mph9.3 kmh 30.42 in1030.1 mb - 0.00 in0.0 mm 0.00 in0.0 mm
08:35 AM 3.0°F-16.1°C -4.3°F-20.2°C 71% 4.6 mph NW7.4 kmh NW 3.5 mph5.6 kmh 30.42 in1030.1 mb - 0.00 in0.0 mm 0.00 in0.0 mm
08:40 AM 3.0°F-16.1°C -4.3°F-20.2°C 71% 6.9 mph NW11.1 kmh NW 4.6 mph7.4 kmh 30.42 in1030.1 mb - 0.00 in0.0 mm 0.00 in0.0 mm
08:45 AM 3.5°F-15.8°C -3.8°F-19.9°C 71% 4.6 mph NNW7.4 kmh NNW 5.8 mph9.3 kmh 30.42 in1030.1 mb - 0.00 in0.0 mm 0.00 in0.0 mm
08:50 AM 3.6°F-15.8°C -3.7°F-19.8°C 71% 5.8 mph NW9.3 kmh NW 4.6 mph7.4 kmh 30.42 in1030.1 mb - 0.00 in0.0 mm 0.00 in0.0 mm
08:55 AM 3.9°F-15.6°C -3.4°F-19.7°C 71% 5.8 mph NNE9.3 kmh NNE 10.4 mph16.7 kmh 30.42 in1030.1 mb - 0.00 in0.0 mm 0.00 in0.0 mm
09:00 AM 3.9°F-15.6°C -3.4°F-19.7°C 71% 6.9 mph NNW11.1 kmh NNW 11.5 mph18.5 kmh 30.43 in1030.5 mb - 0.00 in0.0 mm 0.00 in0.0 mm
09:10 AM 4.5°F-15.3°C -2.9°F-19.4°C 71% 5.8 mph NW9.3 kmh NW 5.8 mph9.3 kmh 30.43 in1030.5 mb - 0.00 in0.0 mm 0.00 in0.0 mm
09:15 AM 4.8°F-15.1°C -2.8°F-19.3°C 70% 4.6 mph NE7.4 kmh NE 4.6 mph7.4 kmh 30.43 in1030.5 mb - 0.00 in0.0 mm 0.00 in0.0 mm
09:20 AM 4.8°F-15.1°C -2.8°F-19.3°C 70% 4.6 mph NE7.4 kmh NE 4.6 mph7.4 kmh 30.43 in1030.5 mb - 0.00 in0.0 mm 0.00 in0.0 mm
09:25 AM 6.6°F-14.1°C -1.4°F-18.6°C 69% 5.8 mph N9.3 kmh N 4.6 mph7.4 kmh 30.43 in1030.5 mb - 0.00 in0.0 mm 0.00 in0.0 mm
09:30 AM 7.3°F-13.7°C -1.1°F-18.4°C 68% 3.5 mph NNW5.6 kmh NNW 5.8 mph9.3 kmh 30.43 in1030.5 mb - 0.00 in0.0 mm 0.00 in0.0 mm
09:35 AM 7.5°F-13.6°C -1.5°F-18.6°C 66% 4.6 mph 7.4 kmh 5.8 mph9.3 kmh 30.43 in1030.5 mb - 0.00 in0.0 mm 0.00 in0.0 mm
09:40 AM 7.5°F-13.6°C -1.5°F-18.6°C 66% 4.6 mph NE7.4 kmh NE 4.6 mph7.4 kmh 30.43 in1030.5 mb - 0.00 in0.0 mm 0.00 in0.0 mm
09:45 AM 8.1°F-13.3°C -1.0°F-18.3°C 66% 4.6 mph N7.4 kmh N 4.6 mph7.4 kmh 30.43 in1030.5 mb - 0.00 in0.0 mm 0.00 in0.0 mm
09:50 AM 9.1°F-12.7°C -0.3°F-17.9°C 65% 4.6 mph ESE7.4 kmh ESE 4.6 mph7.4 kmh 30.43 in1030.5 mb - 0.00 in0.0 mm 0.00 in0.0 mm
09:55 AM 9.0°F-12.8°C -0.4°F-18.0°C 65% 5.8 mph N9.3 kmh N 3.5 mph5.6 kmh 30.43 in1030.5 mb - 0.00 in0.0 mm 0.00 in0.0 mm
10:00 AM 10.2°F-12.1°C 0.1°F-17.7°C 63% 4.6 mph ESE7.4 kmh ESE 6.9 mph11.1 kmh 30.43 in1030.5 mb - 0.00 in0.0 mm 0.00 in0.0 mm
10:10 AM 10.0°F-12.2°C -0.1°F-17.8°C 63% 4.6 mph N7.4 kmh N 6.9 mph11.1 kmh 30.44 in1030.8 mb - 0.00 in0.0 mm 0.00 in0.0 mm
10:15 AM 10.0°F-12.2°C -0.1°F-17.8°C 63% 4.6 mph NW7.4 kmh NW 6.9 mph11.1 kmh 30.44 in1030.8 mb - 0.00 in0.0 mm 0.00 in0.0 mm
10:20 AM 10.2°F-12.1°C 0.1°F-17.7°C 63% 5.8 mph WNW9.3 kmh WNW 3.5 mph5.6 kmh 30.45 in1031.2 mb - 0.00 in0.0 mm 0.00 in0.0 mm
10:25 AM 10.7°F-11.8°C -0.1°F-17.8°C 61% 4.6 mph WNW7.4 kmh WNW 3.5 mph5.6 kmh 30.45 in1031.2 mb - 0.00 in0.0 mm 0.00 in0.0 mm
10:30 AM 10.8°F-11.8°C -0.1°F-17.8°C 61% 6.9 mph NE11.1 kmh NE 9.2 mph14.8 kmh 30.45 in1031.2 mb - 0.00 in0.0 mm 0.00 in0.0 mm
10:35 AM 10.3°F-12.1°C -0.5°F-18.1°C 61% 8.1 mph NNE13.0 kmh NNE 8.1 mph13.0 kmh 30.45 in1031.2 mb - 0.00 in0.0 mm 0.00 in0.0 mm
10:40 AM 10.8°F-11.8°C 0.6°F-17.4°C 63% 5.8 mph NNE9.3 kmh NNE 6.9 mph11.1 kmh 30.45 in1031.2 mb - 0.00 in0.0 mm 0.00 in0.0 mm
10:45 AM 11.8°F-11.2°C 1.6°F-16.9°C 63% 4.6 mph N7.4 kmh N 10.4 mph16.7 kmh 30.45 in1031.2 mb - 0.00 in0.0 mm 0.00 in0.0 mm
10:50 AM 11.7°F-11.3°C 0.9°F-17.3°C 61% 4.6 mph N7.4 kmh N 3.5 mph5.6 kmh 30.45 in1031.2 mb - 0.00 in0.0 mm 0.00 in0.0 mm
10:55 AM 11.7°F-11.3°C 0.8°F-17.3°C 61% 6.9 mph NNW11.1 kmh NNW 8.1 mph13.0 kmh 30.45 in1031.2 mb - 0.00 in0.0 mm 0.00 in0.0 mm
11:00 AM 11.8°F-11.2°C 0.9°F-17.3°C 61% 6.9 mph N11.1 kmh N 8.1 mph13.0 kmh 30.45 in1031.2 mb - 0.00 in0.0 mm 0.00 in0.0 mm
11:10 AM 11.7°F-11.3°C 0.8°F-17.3°C 61% 6.9 mph N11.1 kmh N 10.4 mph16.7 kmh 30.45 in1031.2 mb - 0.00 in0.0 mm 0.00 in0.0 mm
11:15 AM 11.8°F-11.2°C 1.0°F-17.2°C 61% 6.9 mph NNW11.1 kmh NNW 8.1 mph13.0 kmh 30.45 in1031.2 mb - 0.00 in0.0 mm 0.00 in0.0 mm
11:20 AM 11.7°F-11.3°C 0.9°F-17.3°C 61% 8.1 mph N13.0 kmh N 10.4 mph16.7 kmh 30.45 in1031.2 mb - 0.00 in0.0 mm 0.00 in0.0 mm
11:25 AM 11.2°F-11.6°C 0.0°F-17.8°C 60% 8.1 mph NE13.0 kmh NE 9.2 mph14.8 kmh 30.45 in1031.2 mb - 0.00 in0.0 mm 0.00 in0.0 mm
11:30 AM 11.7°F-11.3°C -0.3°F-17.9°C 58% 6.9 mph NW11.1 kmh NW 10.4 mph16.7 kmh 30.45 in1031.2 mb - 0.00 in0.0 mm 0.00 in0.0 mm
11:35 AM 11.1°F-11.6°C -0.4°F-18.0°C 59% 9.2 mph NW14.8 kmh NW 9.2 mph14.8 kmh 30.45 in1031.2 mb - 0.00 in0.0 mm 0.00 in0.0 mm
11:40 AM 10.8°F-11.8°C -0.7°F-18.2°C 59% 10.4 mph N16.7 kmh N 10.4 mph16.7 kmh 30.45 in1031.2 mb - 0.00 in0.0 mm 0.00 in0.0 mm
11:45 AM 11.4°F-11.4°C 0.2°F-17.7°C 60% 6.9 mph NNW11.1 kmh NNW 11.5 mph18.5 kmh 30.45 in1031.2 mb - 0.00 in0.0 mm 0.00 in0.0 mm
11:50 AM 11.5°F-11.4°C -0.1°F-17.8°C 59% 6.9 mph NE11.1 kmh NE 6.9 mph11.1 kmh 30.47 in1031.8 mb - 0.00 in0.0 mm 0.00 in0.0 mm
11:55 AM 12.6°F-10.8°C 0.9°F-17.3°C 59% 5.8 mph NNW9.3 kmh NNW 9.2 mph14.8 kmh 30.45 in1031.2 mb - 0.00 in0.0 mm 0.00 in0.0 mm
12:00 PM 9.9°F-12.3°C -0.9°F-18.3°C 61% 6.9 mph N11.1 kmh N 8.1 mph13.0 kmh 30.45 in1031.2 mb - 0.00 in0.0 mm 0.00 in0.0 mm
12:10 PM 10.2°F-12.1°C -0.6°F-18.1°C 61% 5.8 mph NE9.3 kmh NE 6.9 mph11.1 kmh 30.45 in1031.2 mb - 0.00 in0.0 mm 0.00 in0.0 mm
12:15 PM 11.1°F-11.6°C -0.1°F-17.8°C 60% 4.6 mph 7.4 kmh 10.4 mph16.7 kmh 30.45 in1031.2 mb - 0.00 in0.0 mm 0.00 in0.0 mm
12:20 PM 10.8°F-11.8°C -0.1°F-17.8°C 61% 5.8 mph ENE9.3 kmh ENE 6.9 mph11.1 kmh 30.45 in1031.2 mb - 0.00 in0.0 mm 0.00 in0.0 mm
12:25 PM 11.1°F-11.6°C 0.3°F-17.6°C 61% 3.5 mph NNW5.6 kmh NNW 3.5 mph5.6 kmh 30.45 in1031.2 mb - 0.00 in0.0 mm 0.00 in0.0 mm
12:30 PM 11.1°F-11.6°C 0.3°F-17.6°C 61% 8.1 mph NE13.0 kmh NE 10.4 mph16.7 kmh 30.45 in1031.2 mb - 0.00 in0.0 mm 0.00 in0.0 mm
12:35 PM 11.3°F-11.5°C -0.3°F-17.9°C 59% 6.9 mph NW11.1 kmh NW 11.5 mph18.5 kmh 30.45 in1031.2 mb - 0.00 in0.0 mm 0.00 in0.0 mm
12:40 PM 11.1°F-11.6°C -0.4°F-18.0°C 59% 6.9 mph N11.1 kmh N 11.5 mph18.5 kmh 30.45 in1031.2 mb - 0.00 in0.0 mm 0.00 in0.0 mm
12:45 PM 11.1°F-11.6°C -0.4°F-18.0°C 59% 8.1 mph NE13.0 kmh NE 8.1 mph13.0 kmh 30.45 in1031.2 mb - 0.00 in0.0 mm 0.00 in0.0 mm
12:50 PM 11.3°F-11.5°C -0.6°F-18.1°C 58% 6.9 mph NW11.1 kmh NW 8.1 mph13.0 kmh 30.45 in1031.2 mb - 0.00 in0.0 mm 0.00 in0.0 mm
12:55 PM 11.2°F-11.6°C -0.4°F-18.0°C 59% 6.9 mph NNW11.1 kmh NNW 6.9 mph11.1 kmh 30.45 in1031.2 mb - 0.00 in0.0 mm 0.00 in0.0 mm
01:00 PM 11.5°F-11.4°C -0.1°F-17.8°C 59% 5.8 mph NW9.3 kmh NW 6.9 mph11.1 kmh 30.45 in1031.2 mb - 0.00 in0.0 mm 0.00 in0.0 mm
01:10 PM 12.6°F-10.8°C 0.9°F-17.3°C 59% 4.6 mph NNW7.4 kmh NNW 11.5 mph18.5 kmh 30.45 in1031.2 mb - 0.00 in0.0 mm 0.00 in0.0 mm
01:15 PM 11.2°F-11.6°C -0.3°F-17.9°C 59% 6.9 mph NW11.1 kmh NW 8.1 mph13.0 kmh 30.45 in1031.2 mb - 0.00 in0.0 mm 0.00 in0.0 mm
01:20 PM 11.1°F-11.6°C -0.4°F-18.0°C 59% 5.8 mph NW9.3 kmh NW 6.9 mph11.1 kmh 30.45 in1031.2 mb - 0.00 in0.0 mm 0.00 in0.0 mm
01:25 PM 10.8°F-11.8°C -0.8°F-18.2°C 59% 5.8 mph NNE9.3 kmh NNE 4.6 mph7.4 kmh 30.45 in1031.2 mb - 0.00 in0.0 mm 0.00 in0.0 mm
01:30 PM 10.8°F-11.8°C -0.4°F-18.0°C 60% 6.9 mph NNE11.1 kmh NNE 6.9 mph11.1 kmh 30.46 in1031.5 mb - 0.00 in0.0 mm 0.00 in0.0 mm
01:35 PM 11.5°F-11.4°C 0.0°F-17.8°C 59% 4.6 mph NNE7.4 kmh NNE 3.5 mph5.6 kmh 30.45 in1031.2 mb - 0.00 in0.0 mm 0.00 in0.0 mm
01:40 PM 11.2°F-11.6°C -0.7°F-18.2°C 58% 5.8 mph NNW9.3 kmh NNW 9.2 mph14.8 kmh 30.45 in1031.2 mb - 0.00 in0.0 mm 0.00 in0.0 mm
01:45 PM 11.1°F-11.6°C -0.4°F-18.0°C 59% 5.8 mph N9.3 kmh N 6.9 mph11.1 kmh 30.45 in1031.2 mb - 0.00 in0.0 mm 0.00 in0.0 mm
01:50 PM 11.1°F-11.6°C -0.4°F-18.0°C 59% 5.8 mph NE9.3 kmh NE 9.2 mph14.8 kmh 30.45 in1031.2 mb - 0.00 in0.0 mm 0.00 in0.0 mm
01:55 PM 11.5°F-11.4°C -0.5°F-18.1°C 58% 5.8 mph N9.3 kmh N 10.4 mph16.7 kmh 30.46 in1031.5 mb - 0.00 in0.0 mm 0.00 in0.0 mm
02:00 PM 11.5°F-11.4°C -0.5°F-18.1°C 58% 6.9 mph NNW11.1 kmh NNW 8.1 mph13.0 kmh 30.46 in1031.5 mb - 0.00 in0.0 mm 0.00 in0.0 mm
02:10 PM 11.7°F-11.3°C -0.3°F-17.9°C 58% 5.8 mph NW9.3 kmh NW 5.8 mph9.3 kmh 30.46 in1031.5 mb - 0.00 in0.0 mm 0.00 in0.0 mm
02:15 PM 11.5°F-11.4°C -0.5°F-18.1°C 58% 5.8 mph N9.3 kmh N 5.8 mph9.3 kmh 30.46 in1031.5 mb - 0.00 in0.0 mm 0.00 in0.0 mm
02:20 PM 12.0°F-11.1°C 0.1°F-17.7°C 58% 4.6 mph NW7.4 kmh NW 8.1 mph13.0 kmh 30.46 in1031.5 mb - 0.00 in0.0 mm 0.00 in0.0 mm
02:25 PM 12.0°F-11.1°C 0.1°F-17.7°C 58% 5.8 mph NW9.3 kmh NW 4.6 mph7.4 kmh 30.46 in1031.5 mb - 0.00 in0.0 mm 0.00 in0.0 mm
02:30 PM 11.1°F-11.6°C -0.8°F-18.2°C 58% 5.8 mph N9.3 kmh N 8.1 mph13.0 kmh 30.47 in1031.8 mb - 0.00 in0.0 mm 0.00 in0.0 mm
02:35 PM 11.1°F-11.6°C -0.8°F-18.2°C 58% 5.8 mph NW9.3 kmh NW 5.8 mph9.3 kmh 30.46 in1031.5 mb - 0.00 in0.0 mm 0.00 in0.0 mm
02:40 PM 11.7°F-11.3°C 0.1°F-17.7°C 59% 4.6 mph NNE7.4 kmh NNE 6.9 mph11.1 kmh 30.47 in1031.8 mb - 0.00 in0.0 mm 0.00 in0.0 mm
02:45 PM 11.8°F-11.2°C 0.2°F-17.7°C 59% 4.6 mph E7.4 kmh E 5.8 mph9.3 kmh 30.47 in1031.8 mb - 0.00 in0.0 mm 0.00 in0.0 mm
02:50 PM 11.3°F-11.5°C -0.7°F-18.2°C 58% 4.6 mph ESE7.4 kmh ESE 5.8 mph9.3 kmh 30.47 in1031.8 mb - 0.00 in0.0 mm 0.00 in0.0 mm
02:55 PM 11.2°F-11.6°C -0.4°F-18.0°C 59% 4.6 mph E7.4 kmh E 4.6 mph7.4 kmh 30.47 in1031.8 mb - 0.00 in0.0 mm 0.00 in0.0 mm
03:00 PM 11.8°F-11.2°C -0.9°F-18.3°C 56% 5.8 mph NW9.3 kmh NW 4.6 mph7.4 kmh 30.47 in1031.8 mb - 0.00 in0.0 mm 0.00 in0.0 mm
03:10 PM 10.8°F-11.8°C -1.1°F-18.4°C 58% 4.6 mph NNE7.4 kmh NNE 2.3 mph3.7 kmh 30.47 in1031.8 mb - 0.00 in0.0 mm 0.00 in0.0 mm
03:15 PM 10.6°F-11.9°C -0.9°F-18.3°C 59% 5.8 mph N9.3 kmh N 11.5 mph18.5 kmh 30.48 in1032.2 mb - 0.00 in0.0 mm 0.00 in0.0 mm
03:20 PM 10.2°F-12.1°C -1.3°F-18.5°C 59% 5.8 mph NNW9.3 kmh NNW 5.8 mph9.3 kmh 30.47 in1031.8 mb - 0.00 in0.0 mm 0.00 in0.0 mm
03:25 PM 10.8°F-11.8°C -0.8°F-18.2°C 59% 4.6 mph 7.4 kmh 3.5 mph5.6 kmh 30.48 in1032.2 mb - 0.00 in0.0 mm 0.00 in0.0 mm
03:30 PM 10.2°F-12.1°C -1.3°F-18.5°C 59% 5.8 mph NNW9.3 kmh NNW 8.1 mph13.0 kmh 30.48 in1032.2 mb - 0.00 in0.0 mm 0.00 in0.0 mm
03:35 PM 10.2°F-12.1°C -1.3°F-18.5°C 59% 6.9 mph NNE11.1 kmh NNE 9.2 mph14.8 kmh 30.48 in1032.2 mb - 0.00 in0.0 mm 0.00 in0.0 mm
03:40 PM 10.4°F-12.0°C -1.1°F-18.4°C 59% 5.8 mph NNW9.3 kmh NNW 5.8 mph9.3 kmh 30.48 in1032.2 mb - 0.00 in0.0 mm 0.00 in0.0 mm
03:45 PM 10.8°F-11.8°C -0.4°F-18.0°C 60% 4.6 mph NW7.4 kmh NW 8.1 mph13.0 kmh 30.48 in1032.2 mb - 0.00 in0.0 mm 0.00 in0.0 mm
03:50 PM 10.6°F-11.9°C -1.0°F-18.3°C 59% 4.6 mph NNW7.4 kmh NNW 6.9 mph11.1 kmh 30.49 in1032.5 mb - 0.00 in0.0 mm 0.00 in0.0 mm
03:55 PM 10.7°F-11.8°C -0.9°F-18.3°C 59% 5.8 mph NW9.3 kmh NW 9.2 mph14.8 kmh 30.48 in1032.2 mb - 0.00 in0.0 mm 0.00 in0.0 mm
04:00 PM 10.2°F-12.1°C -1.7°F-18.7°C 58% 5.8 mph NW9.3 kmh NW 5.8 mph9.3 kmh 30.49 in1032.5 mb - 0.00 in0.0 mm 0.00 in0.0 mm
04:10 PM 9.3°F-12.6°C -1.4°F-18.6°C 61% 4.6 mph NNE7.4 kmh NNE 4.6 mph7.4 kmh 30.49 in1032.5 mb - 0.00 in0.0 mm 0.00 in0.0 mm
04:15 PM 9.4°F-12.6°C -1.7°F-18.7°C 60% 5.8 mph NW9.3 kmh NW 6.9 mph11.1 kmh 30.49 in1032.5 mb - 0.00 in0.0 mm 0.00 in0.0 mm
04:20 PM 9.1°F-12.7°C -1.6°F-18.7°C 61% 4.6 mph N7.4 kmh N 6.9 mph11.1 kmh 30.49 in1032.5 mb - 0.00 in0.0 mm 0.00 in0.0 mm
04:25 PM 9.0°F-12.8°C -1.8°F-18.8°C 61% 4.6 mph N7.4 kmh N 5.8 mph9.3 kmh 30.50 in1032.8 mb - 0.00 in0.0 mm 0.00 in0.0 mm
04:30 PM 8.6°F-13.0°C -2.1°F-18.9°C 61% 5.8 mph N9.3 kmh N 11.5 mph18.5 kmh 30.49 in1032.5 mb - 0.00 in0.0 mm 0.00 in0.0 mm
04:35 PM 8.2°F-13.2°C -2.5°F-19.2°C 61% 5.8 mph NNW9.3 kmh NNW 4.6 mph7.4 kmh 30.49 in1032.5 mb - 0.00 in0.0 mm 0.00 in0.0 mm
04:40 PM 8.1°F-13.3°C -1.9°F-18.8°C 63% 3.5 mph N5.6 kmh N 3.5 mph5.6 kmh 30.50 in1032.8 mb - 0.00 in0.0 mm 0.00 in0.0 mm
04:45 PM 7.5°F-13.6°C -2.5°F-19.2°C 63% 3.5 mph NE5.6 kmh NE 3.5 mph5.6 kmh 30.50 in1032.8 mb - 0.00 in0.0 mm 0.00 in0.0 mm
04:50 PM 7.5°F-13.6°C -1.8°F-18.8°C 65% 2.3 mph NNW3.7 kmh NNW 4.6 mph7.4 kmh 30.50 in1032.8 mb - 0.00 in0.0 mm 0.00 in0.0 mm
04:55 PM 7.3°F-13.7°C -2.0°F-18.9°C 65% 3.5 mph NW5.6 kmh NW 3.5 mph5.6 kmh 30.50 in1032.8 mb - 0.00 in0.0 mm 0.00 in0.0 mm
05:00 PM 7.2°F-13.8°C -2.1°F-18.9°C 65% 3.5 mph W5.6 kmh W 3.5 mph5.6 kmh 30.50 in1032.8 mb - 0.00 in0.0 mm 0.00 in0.0 mm
05:10 PM 7.0°F-13.9°C -2.3°F-19.1°C 65% 3.5 mph NW5.6 kmh NW 3.5 mph5.6 kmh 30.50 in1032.8 mb - 0.00 in0.0 mm 0.00 in0.0 mm
05:15 PM 6.8°F-14.0°C -2.5°F-19.2°C 65% 3.5 mph NNW5.6 kmh NNW 3.5 mph5.6 kmh 30.51 in1033.2 mb - 0.00 in0.0 mm 0.00 in0.0 mm
05:20 PM 6.5°F-14.2°C -2.8°F-19.3°C 65% 2.3 mph WNW3.7 kmh WNW 3.5 mph5.6 kmh 30.51 in1033.2 mb - 0.00 in0.0 mm 0.00 in0.0 mm
05:25 PM 6.4°F-14.2°C -2.5°F-19.2°C 66% 3.5 mph N5.6 kmh N 3.5 mph5.6 kmh 30.50 in1032.8 mb - 0.00 in0.0 mm 0.00 in0.0 mm
05:30 PM 6.3°F-14.3°C -2.7°F-19.3°C 66% 2.3 mph N3.7 kmh N 3.5 mph5.6 kmh 30.51 in1033.2 mb - 0.00 in0.0 mm 0.00 in0.0 mm
05:35 PM 6.3°F-14.3°C -2.7°F-19.3°C 66% 2.3 mph NW3.7 kmh NW 3.5 mph5.6 kmh 30.51 in1033.2 mb - 0.00 in0.0 mm 0.00 in0.0 mm
05:40 PM 6.3°F-14.3°C -2.7°F-19.3°C 66% 3.5 mph NW5.6 kmh NW 2.3 mph3.7 kmh 30.51 in1033.2 mb - 0.00 in0.0 mm 0.00 in0.0 mm
05:45 PM 6.1°F-14.4°C -2.9°F-19.4°C 66% 3.5 mph WNW5.6 kmh WNW 4.6 mph7.4 kmh 30.51 in1033.2 mb - 0.00 in0.0 mm 0.00 in0.0 mm
05:50 PM 6.1°F-14.4°C -2.2°F-19.0°C 68% 3.5 mph NW5.6 kmh NW 4.6 mph7.4 kmh 30.51 in1033.2 mb - 0.00 in0.0 mm 0.00 in0.0 mm
05:55 PM 6.1°F-14.4°C -2.2°F-19.0°C 68% 2.3 mph NW3.7 kmh NW 3.5 mph5.6 kmh 30.51 in1033.2 mb - 0.00 in0.0 mm 0.00 in0.0 mm
06:00 PM 6.1°F-14.4°C -2.2°F-19.0°C 68% 3.5 mph NW5.6 kmh NW 3.5 mph5.6 kmh 30.51 in1033.2 mb - 0.00 in0.0 mm 0.00 in0.0 mm
06:10 PM 6.1°F-14.4°C -2.2°F-19.0°C 68% 4.6 mph NW7.4 kmh NW 3.5 mph5.6 kmh 30.51 in1033.2 mb - 0.00 in0.0 mm 0.00 in0.0 mm
06:15 PM 6.1°F-14.4°C -2.2°F-19.0°C 68% 3.5 mph N5.6 kmh N 4.6 mph7.4 kmh 30.51 in1033.2 mb - 0.00 in0.0 mm 0.00 in0.0 mm
06:20 PM 6.1°F-14.4°C -2.2°F-19.0°C 68% 3.5 mph NNW5.6 kmh NNW 6.9 mph11.1 kmh 30.52 in1033.5 mb - 0.00 in0.0 mm 0.00 in0.0 mm
06:25 PM 6.1°F-14.4°C -2.2°F-19.0°C 68% 4.6 mph N7.4 kmh N 4.6 mph7.4 kmh 30.52 in1033.5 mb - 0.00 in0.0 mm 0.00 in0.0 mm
06:30 PM 6.0°F-14.4°C -2.3°F-19.1°C 68% 3.5 mph NNE5.6 kmh NNE 3.5 mph5.6 kmh 30.52 in1033.5 mb - 0.00 in0.0 mm 0.00 in0.0 mm
06:35 PM 5.7°F-14.6°C -2.6°F-19.2°C 68% 2.3 mph N3.7 kmh N 3.5 mph5.6 kmh 30.52 in1033.5 mb - 0.00 in0.0 mm 0.00 in0.0 mm
06:40 PM 5.5°F-14.7°C -2.7°F-19.3°C 68% 3.5 mph NE5.6 kmh NE 5.8 mph9.3 kmh 30.52 in1033.5 mb - 0.00 in0.0 mm 0.00 in0.0 mm
06:45 PM 5.5°F-14.7°C -2.7°F-19.3°C 68% 3.5 mph NW5.6 kmh NW 4.6 mph7.4 kmh 30.52 in1033.5 mb - 0.00 in0.0 mm 0.00 in0.0 mm
06:50 PM 5.5°F-14.7°C -2.4°F-19.1°C 69% 5.8 mph NW9.3 kmh NW 11.5 mph18.5 kmh 30.52 in1033.5 mb - 0.00 in0.0 mm 0.00 in0.0 mm
06:55 PM 5.9°F-14.5°C -2.4°F-19.1°C 68% 4.6 mph N7.4 kmh N 4.6 mph7.4 kmh 30.52 in1033.5 mb - 0.00 in0.0 mm 0.00 in0.0 mm
07:00 PM 5.5°F-14.7°C -2.7°F-19.3°C 68% 3.5 mph N5.6 kmh N 6.9 mph11.1 kmh 30.52 in1033.5 mb - 0.00 in0.0 mm 0.00 in0.0 mm
07:10 PM 5.5°F-14.7°C -2.7°F-19.3°C 68% 3.5 mph ENE5.6 kmh ENE 3.5 mph5.6 kmh 30.53 in1033.9 mb - 0.00 in0.0 mm 0.00 in0.0 mm
07:15 PM 5.4°F-14.8°C -2.9°F-19.4°C 68% 3.5 mph N5.6 kmh N 3.5 mph5.6 kmh 30.52 in1033.5 mb - 0.00 in0.0 mm 0.00 in0.0 mm
07:20 PM 5.4°F-14.8°C -2.6°F-19.2°C 69% 3.5 mph NE5.6 kmh NE 3.5 mph5.6 kmh 30.52 in1033.5 mb - 0.00 in0.0 mm 0.00 in0.0 mm
07:25 PM 5.4°F-14.8°C -2.6°F-19.2°C 69% 2.3 mph NW3.7 kmh NW 2.3 mph3.7 kmh 30.53 in1033.9 mb - 0.00 in0.0 mm 0.00 in0.0 mm
07:30 PM 5.4°F-14.8°C -2.6°F-19.2°C 69% 2.3 mph NW3.7 kmh NW 2.3 mph3.7 kmh 30.53 in1033.9 mb - 0.00 in0.0 mm 0.00 in0.0 mm
07:35 PM 5.2°F-14.9°C -2.5°F-19.2°C 70% 3.5 mph NNE5.6 kmh NNE 4.6 mph7.4 kmh 30.53 in1033.9 mb - 0.00 in0.0 mm 0.00 in0.0 mm
07:40 PM 5.0°F-15.0°C -2.7°F-19.3°C 70% 4.6 mph NW7.4 kmh NW 5.8 mph9.3 kmh 30.53 in1033.9 mb - 0.00 in0.0 mm 0.00 in0.0 mm
07:45 PM 5.0°F-15.0°C -2.7°F-19.3°C 70% 4.6 mph NW7.4 kmh NW 4.6 mph7.4 kmh 30.53 in1033.9 mb - 0.00 in0.0 mm 0.00 in0.0 mm
07:50 PM 5.0°F-15.0°C -2.7°F-19.3°C 70% 4.6 mph NNW7.4 kmh NNW 3.5 mph5.6 kmh 30.53 in1033.9 mb - 0.00 in0.0 mm 0.00 in0.0 mm
07:55 PM 5.0°F-15.0°C -2.7°F-19.3°C 70% 4.6 mph NNW7.4 kmh NNW 5.8 mph9.3 kmh 30.53 in1033.9 mb - 0.00 in0.0 mm 0.00 in0.0 mm
08:00 PM 5.0°F-15.0°C -2.7°F-19.3°C 70% 3.5 mph N5.6 kmh N 5.8 mph9.3 kmh 30.54 in1034.2 mb - 0.00 in0.0 mm 0.00 in0.0 mm
08:10 PM 4.8°F-15.1°C -2.8°F-19.3°C 70% 3.5 mph NW5.6 kmh NW 3.5 mph5.6 kmh 30.53 in1033.9 mb - 0.00 in0.0 mm 0.00 in0.0 mm
08:15 PM 4.5°F-15.3°C -2.9°F-19.4°C 71% 2.3 mph NNW3.7 kmh NNW 5.8 mph9.3 kmh 30.54 in1034.2 mb - 0.00 in0.0 mm 0.00 in0.0 mm
08:20 PM 4.3°F-15.4°C -2.4°F-19.1°C 73% 3.5 mph NW5.6 kmh NW 3.5 mph5.6 kmh 30.54 in1034.2 mb - 0.00 in0.0 mm 0.00 in0.0 mm
08:25 PM 4.3°F-15.4°C -2.5°F-19.2°C 73% 3.5 mph NNE5.6 kmh NNE 5.8 mph9.3 kmh 30.53 in1033.9 mb - 0.00 in0.0 mm 0.00 in0.0 mm
08:30 PM 3.9°F-15.6°C -2.8°F-19.3°C 73% 3.5 mph NNW5.6 kmh NNW 3.5 mph5.6 kmh 30.54 in1034.2 mb - 0.00 in0.0 mm 0.00 in0.0 mm
08:35 PM 3.9°F-15.6°C -2.5°F-19.2°C 74% 3.5 mph ENE5.6 kmh ENE 3.5 mph5.6 kmh 30.54 in1034.2 mb - 0.00 in0.0 mm 0.00 in0.0 mm
08:40 PM 3.7°F-15.7°C -2.7°F-19.3°C 74% 3.5 mph NNE5.6 kmh NNE 3.5 mph5.6 kmh 30.54 in1034.2 mb - 0.00 in0.0 mm 0.00 in0.0 mm
08:45 PM 3.7°F-15.7°C -2.7°F-19.3°C 74% 3.5 mph 5.6 kmh 3.5 mph5.6 kmh 30.54 in1034.2 mb - 0.00 in0.0 mm 0.00 in0.0 mm
08:50 PM 3.7°F-15.7°C -2.7°F-19.3°C 74% 3.5 mph NNE5.6 kmh NNE 3.5 mph5.6 kmh 30.54 in1034.2 mb - 0.00 in0.0 mm 0.00 in0.0 mm
08:55 PM 3.7°F-15.7°C -2.7°F-19.3°C 74% 2.3 mph NW3.7 kmh NW 2.3 mph3.7 kmh 30.54 in1034.2 mb - 0.00 in0.0 mm 0.00 in0.0 mm
09:00 PM 3.4°F-15.9°C -2.8°F-19.3°C 75% 2.3 mph ENE3.7 kmh ENE 3.5 mph5.6 kmh 30.54 in1034.2 mb - 0.00 in0.0 mm 0.00 in0.0 mm
09:10 PM 3.0°F-16.1°C -3.1°F-19.5°C 75% 2.3 mph NNE3.7 kmh NNE 4.6 mph7.4 kmh 30.54 in1034.2 mb - 0.00 in0.0 mm 0.00 in0.0 mm
09:15 PM 3.0°F-16.1°C -3.1°F-19.5°C 75% 3.5 mph NNW5.6 kmh NNW 3.5 mph5.6 kmh 30.55 in1034.5 mb - 0.00 in0.0 mm 0.00 in0.0 mm
09:20 PM 3.0°F-16.1°C -3.1°F-19.5°C 75% 3.5 mph NW5.6 kmh NW 3.5 mph5.6 kmh 30.54 in1034.2 mb - 0.00 in0.0 mm 0.00 in0.0 mm
09:25 PM 3.0°F-16.1°C -3.1°F-19.5°C 75% 1.2 mph NNE1.9 kmh NNE 2.3 mph3.7 kmh 30.55 in1034.5 mb - 0.00 in0.0 mm 0.00 in0.0 mm
09:30 PM 2.7°F-16.3°C -3.2°F-19.6°C 76% 2.3 mph NW3.7 kmh NW 3.5 mph5.6 kmh 30.55 in1034.5 mb - 0.00 in0.0 mm 0.00 in0.0 mm
09:35 PM 2.7°F-16.3°C -3.2°F-19.6°C 76% 3.5 mph NNE5.6 kmh NNE 3.5 mph5.6 kmh 30.55 in1034.5 mb - 0.00 in0.0 mm 0.00 in0.0 mm
09:40 PM 2.7°F-16.3°C -3.2°F-19.6°C 76% 2.3 mph NW3.7 kmh NW 3.5 mph5.6 kmh 30.55 in1034.5 mb - 0.00 in0.0 mm 0.00 in0.0 mm
09:45 PM 2.7°F-16.3°C -3.2°F-19.6°C 76% 2.3 mph NW3.7 kmh NW 3.5 mph5.6 kmh 30.55 in1034.5 mb - 0.00 in0.0 mm 0.00 in0.0 mm
09:50 PM 2.7°F-16.3°C -3.2°F-19.6°C 76% 2.3 mph NW3.7 kmh NW 3.5 mph5.6 kmh 30.55 in1034.5 mb - 0.00 in0.0 mm 0.00 in0.0 mm
09:55 PM 2.7°F-16.3°C -3.2°F-19.6°C 76% 2.3 mph NNE3.7 kmh NNE 3.5 mph5.6 kmh 30.56 in1034.9 mb - 0.00 in0.0 mm 0.00 in0.0 mm
10:00 PM 2.7°F-16.3°C -3.2°F-19.6°C 76% 2.3 mph N3.7 kmh N 3.5 mph5.6 kmh 30.56 in1034.9 mb - 0.00 in0.0 mm 0.00 in0.0 mm
10:10 PM 1.9°F-16.7°C -3.9°F-19.9°C 76% 2.3 mph WNW3.7 kmh WNW 3.5 mph5.6 kmh 30.56 in1034.9 mb - 0.00 in0.0 mm 0.00 in0.0 mm
10:15 PM 1.9°F-16.7°C -3.3°F-19.6°C 78% 2.3 mph WNW3.7 kmh WNW 2.3 mph3.7 kmh 30.56 in1034.9 mb - 0.00 in0.0 mm 0.00 in0.0 mm
10:20 PM 1.9°F-16.7°C -3.3°F-19.6°C 78% 2.3 mph W3.7 kmh W 3.5 mph5.6 kmh 30.57 in1035.2 mb - 0.00 in0.0 mm 0.00 in0.0 mm
10:25 PM 1.9°F-16.7°C -3.3°F-19.6°C 78% 2.3 mph W3.7 kmh W 3.5 mph5.6 kmh 30.57 in1035.2 mb - 0.00 in0.0 mm 0.00 in0.0 mm
10:30 PM 1.8°F-16.8°C -3.5°F-19.7°C 78% 2.3 mph WNW3.7 kmh WNW 3.5 mph5.6 kmh 30.57 in1035.2 mb - 0.00 in0.0 mm 0.00 in0.0 mm
10:35 PM 1.8°F-16.8°C -3.5°F-19.7°C 78% 2.3 mph NW3.7 kmh NW 2.3 mph3.7 kmh 30.56 in1034.9 mb - 0.00 in0.0 mm 0.00 in0.0 mm
10:40 PM 1.6°F-16.9°C -3.7°F-19.8°C 78% 2.3 mph NW3.7 kmh NW 3.5 mph5.6 kmh 30.56 in1034.9 mb - 0.00 in0.0 mm 0.00 in0.0 mm
10:45 PM 1.2°F-17.1°C -4.0°F-20.0°C 78% 2.3 mph NW3.7 kmh NW 3.5 mph5.6 kmh 30.56 in1034.9 mb - 0.00 in0.0 mm 0.00 in0.0 mm
10:50 PM 1.2°F-17.1°C -4.0°F-20.0°C 78% 2.3 mph WNW3.7 kmh WNW 3.5 mph5.6 kmh 30.57 in1035.2 mb - 0.00 in0.0 mm 0.00 in0.0 mm
10:55 PM 1.2°F-17.1°C -3.8°F-19.9°C 79% 2.3 mph NW3.7 kmh NW 2.3 mph3.7 kmh 30.56 in1034.9 mb - 0.00 in0.0 mm 0.00 in0.0 mm
11:00 PM 1.2°F-17.1°C -3.8°F-19.9°C 79% 2.3 mph NNW3.7 kmh NNW 3.5 mph5.6 kmh 30.56 in1034.9 mb - 0.00 in0.0 mm 0.00 in0.0 mm
11:10 PM 1.0°F-17.2°C -4.0°F-20.0°C 79% 2.3 mph WNW3.7 kmh WNW 1.2 mph1.9 kmh 30.56 in1034.9 mb - 0.00 in0.0 mm 0.00 in0.0 mm
11:15 PM 0.8°F-17.3°C -4.2°F-20.1°C 79% 1.2 mph NW1.9 kmh NW -- 30.57 in1035.2 mb - 0.00 in0.0 mm 0.00 in0.0 mm
11:20 PM 0.3°F-17.6°C -4.7°F-20.4°C 79% Calm Calm -- 30.57 in1035.2 mb - 0.00 in0.0 mm 0.00 in0.0 mm
11:25 PM 0.1°F-17.7°C -4.6°F-20.3°C 80% 1.2 mph NW1.9 kmh NW 2.3 mph3.7 kmh 30.55 in1034.5 mb - 0.00 in0.0 mm 0.00 in0.0 mm
11:30 PM -0.2°F-17.9°C -4.9°F-20.5°C 80% 1.2 mph NW1.9 kmh NW 2.3 mph3.7 kmh 30.56 in1034.9 mb - 0.00 in0.0 mm 0.00 in0.0 mm
11:35 PM -0.4°F-18.0°C -4.8°F-20.4°C 81% 2.3 mph NE3.7 kmh NE 2.3 mph3.7 kmh 30.56 in1034.9 mb - 0.00 in0.0 mm 0.00 in0.0 mm
11:40 PM -0.4°F-18.0°C -4.8°F-20.4°C 81% 1.2 mph NE1.9 kmh NE 1.2 mph1.9 kmh 30.56 in1034.9 mb - 0.00 in0.0 mm 0.00 in0.0 mm
11:45 PM -0.7°F-18.2°C -5.1°F-20.6°C 81% Calm Calm 1.2 mph1.9 kmh 30.56 in1034.9 mb - 0.00 in0.0 mm 0.00 in0.0 mm
11:50 PM -0.9°F-18.3°C -5.4°F-20.8°C 81% 1.2 mph NE1.9 kmh NE 1.2 mph1.9 kmh 30.56 in1034.9 mb - 0.00 in0.0 mm 0.00 in0.0 mm
11:55 PM -1.1°F-18.4°C -5.5°F-20.8°C 81% 1.2 mph NE1.9 kmh NE 1.2 mph1.9 kmh 30.55 in1034.5 mb - 0.00 in0.0 mm 0.00 in0.0 mm